LSZB/BRN METAR and TAF weather

Enter ICAO airport designator
Station Type Date Time Source
LSZB METAR 2018/12/12 07:20 UTC NOAA

LSZB 120720Z VRB02KT 9999 SCT017 M05/M06 Q1021 NOSIG


Station Type Date Time Source
LSZB Decoded METAR 2018/12/12 07:20 UTC NOAA

Bern / Belp , Switzerland (LSZB) 46-55N 007-30E
Dec 12, 2018 - 02:20 AM EST / 2018.12.12 0720 UTC
Wind: Variable at 2 MPH (2 KT):0
Visibility: greater than 7 mile(s):0
Sky conditions: partly cloudy
Temperature: 23 F (-5 C)
Dew Point: 21 F (-6 C)
Relative Humidity: 92%
Pressure (altimeter): 30.15 in. Hg (1021 hPa)
ob: LSZB 120720Z VRB02KT 9999 SCT017 M05/M06 Q1021 NOSIG
cycle: 7

Station Type Date Time Source
LSZB TAF 2014/12/22 20:03 UTC NOAA

TAF
AMD TAF
AMD LSZB 222054Z 2220/2224 CNL


Example: see airport list